Time;durP1;ratioP1;P1;durP2;ratioP2;P2;SDS_P1;SDS_P2;PMS_P1;PMS_P2;Temp;Humidity;BMP_temperature;BMP_pressure;BME280_temperature;BME280_humidity;BME280_pressure;Samples;Min_cycle;Max_cycle;Signal;HPM_P1;HPM_P2
2024/01/05 00:01:47;;;;;;;3.10;2.65;;;18.30;61.60;;;;;;5096503;28;20189;-70
2024/01/05 00:04:13;;;;;;;3.72;2.85;;;18.20;61.40;;;;;;5077683;28;20208;-69
2024/01/05 00:06:39;;;;;;;3.45;2.78;;;18.20;61.60;;;;;;5091210;28;20185;-69
2024/01/05 00:09:06;;;;;;;4.43;2.65;;;18.20;61.50;;;;;;5092015;28;20216;-69
2024/01/05 00:11:32;;;;;;;4.00;2.97;;;18.20;61.40;;;;;;5084407;28;20209;-69
2024/01/05 00:13:57;;;;;;;4.47;2.85;;;18.20;61.50;;;;;;5080578;28;20211;-69
2024/01/05 00:16:24;;;;;;;4.13;3.10;;;18.20;61.50;;;;;;5080473;28;20254;-69
2024/01/05 00:18:50;;;;;;;3.60;2.65;;;18.20;61.50;;;;;;5093380;28;20189;-69
2024/01/05 00:21:25;;;;;;;3.00;2.22;;;18.20;61.40;;;;;;5100256;28;20245;-71
2024/01/05 00:23:53;;;;;;;2.65;2.22;;;18.20;61.40;;;;;;5092537;28;20770;-70
2024/01/05 00:26:20;;;;;;;2.70;2.50;;;18.20;61.30;;;;;;5074890;28;20223;-69
2024/01/05 00:28:48;;;;;;;3.40;2.75;;;18.20;61.30;;;;;;5082364;28;20200;-69
2024/01/05 00:31:15;;;;;;;3.20;2.70;;;18.20;61.40;;;;;;5074567;28;20213;-69
2024/01/05 00:33:42;;;;;;;2.47;2.28;;;18.20;61.40;;;;;;5091562;28;20205;-69
2024/01/05 00:36:09;;;;;;;3.22;2.33;;;18.20;61.40;;;;;;5102609;28;20242;-69
2024/01/05 00:38:36;;;;;;;2.60;2.20;;;18.20;61.50;;;;;;5091255;28;20195;-69
2024/01/05 00:41:03;;;;;;;3.05;2.75;;;18.20;61.40;;;;;;5091114;28;20201;-70
2024/01/05 00:43:29;;;;;;;2.97;2.42;;;18.30;61.50;;;;;;5089650;28;20285;-70
2024/01/05 00:45:55;;;;;;;2.50;2.30;;;18.20;61.40;;;;;;5091138;28;20259;-69
2024/01/05 00:48:21;;;;;;;2.90;2.00;;;18.20;61.50;;;;;;5092530;28;20193;-70
2024/01/05 00:50:47;;;;;;;2.50;2.10;;;18.20;61.50;;;;;;5080351;28;20295;-69
2024/01/05 00:53:13;;;;;;;3.38;2.65;;;18.20;61.50;;;;;;5093947;28;20649;-70
2024/01/05 00:55:39;;;;;;;2.50;2.30;;;18.20;61.50;;;;;;5083209;28;20184;-70
2024/01/05 00:58:05;;;;;;;2.58;2.30;;;18.20;61.50;;;;;;5096557;28;20272;-69
2024/01/05 01:00:31;;;;;;;3.58;2.45;;;18.20;61.50;;;;;;5080239;28;20192;-70
2024/01/05 01:02:57;;;;;;;3.05;2.28;;;18.20;61.50;;;;;;5094744;28;20284;-70
2024/01/05 01:05:23;;;;;;;3.20;2.38;;;18.20;61.40;;;;;;5094597;28;20287;-69
2024/01/05 01:07:48;;;;;;;2.47;2.03;;;18.20;61.40;;;;;;5111604;28;20188;-70
2024/01/05 01:10:15;;;;;;;2.47;2.20;;;18.20;61.40;;;;;;5087731;28;20228;-69
2024/01/05 01:12:41;;;;;;;2.83;2.05;;;18.20;61.50;;;;;;5096383;28;20270;-69
2024/01/05 01:15:07;;;;;;;2.08;1.95;;;18.20;61.50;;;;;;5077424;28;20220;-70
2024/01/05 01:17:34;;;;;;;2.28;2.00;;;18.20;61.40;;;;;;5080508;28;20257;-70
2024/01/05 01:20:00;;;;;;;3.13;2.10;;;18.20;61.40;;;;;;5107119;28;20442;-68
2024/01/05 01:22:26;;;;;;;2.22;2.00;;;18.20;61.30;;;;;;5077264;28;20287;-69
2024/01/05 01:24:52;;;;;;;2.88;1.95;;;18.20;61.40;;;;;;5096779;28;20266;-69
2024/01/05 01:27:18;;;;;;;2.20;1.90;;;18.20;61.40;;;;;;5110704;27;20648;-69
2024/01/05 01:29:44;;;;;;;2.53;1.95;;;18.20;61.40;;;;;;5084596;28;20212;-69
2024/01/05 01:32:09;;;;;;;2.75;2.08;;;18.20;61.40;;;;;;5100288;28;20181;-70
2024/01/05 01:34:37;;;;;;;2.28;1.73;;;18.20;61.40;;;;;;5097930;28;20234;-70
2024/01/05 01:37:03;;;;;;;2.30;1.80;;;18.20;61.40;;;;;;5092497;28;20177;-69
2024/01/05 01:39:29;;;;;;;2.40;2.20;;;18.20;61.40;;;;;;5113924;27;20173;-70
2024/01/05 01:41:55;;;;;;;2.00;1.90;;;18.20;61.40;;;;;;5078111;28;20185;-69
2024/01/05 01:44:21;;;;;;;2.65;1.95;;;18.20;61.50;;;;;;5089058;28;20287;-69
2024/01/05 01:46:49;;;;;;;2.78;1.98;;;18.20;61.40;;;;;;5094027;28;20185;-70
2024/01/05 01:49:16;;;;;;;2.20;2.00;;;18.20;61.40;;;;;;5097482;28;20271;-68
2024/01/05 01:51:42;;;;;;;2.00;1.80;;;18.20;61.50;;;;;;5078175;28;20220;-69
2024/01/05 01:54:08;;;;;;;2.55;2.00;;;18.20;61.50;;;;;;5096111;28;20197;-69
2024/01/05 01:56:36;;;;;;;2.60;1.75;;;18.20;61.40;;;;;;5109919;28;20246;-69
2024/01/05 01:59:04;;;;;;;2.25;2.05;;;18.20;61.40;;;;;;5072731;28;20220;-69
2024/01/05 02:01:30;;;;;;;1.65;1.55;;;18.20;61.40;;;;;;5092732;28;20193;-69
2024/01/05 02:03:56;;;;;;;2.78;1.90;;;18.20;61.40;;;;;;5078409;28;20209;-69
2024/01/05 02:06:22;;;;;;;1.92;1.67;;;18.20;61.40;;;;;;5069872;28;20182;-70
2024/01/05 02:08:50;;;;;;;1.95;1.77;;;18.20;61.40;;;;;;5103672;28;20192;-69
2024/01/05 02:11:17;;;;;;;1.92;1.67;;;18.20;61.30;;;;;;5083731;28;20264;-69
2024/01/05 02:13:43;;;;;;;1.83;1.73;;;18.20;61.30;;;;;;5093183;28;20224;-69
2024/01/05 02:16:09;;;;;;;2.92;1.67;;;18.20;61.30;;;;;;5091692;28;20189;-69
2024/01/05 02:18:35;;;;;;;2.42;1.77;;;18.20;61.40;;;;;;5095571;28;20189;-69
2024/01/05 02:21:04;;;;;;;1.90;1.65;;;18.20;61.30;;;;;;5107098;28;20212;-70
2024/01/05 02:23:31;;;;;;;1.70;1.60;;;18.20;61.30;;;;;;5076450;28;20253;-70
2024/01/05 02:25:58;;;;;;;2.88;2.13;;;18.20;61.30;;;;;;5093138;28;20241;-69
2024/01/05 02:28:25;;;;;;;1.92;1.83;;;18.20;62.00;;;;;;5108675;28;20238;-69
2024/01/05 02:30:55;;;;;;;2.55;1.75;;;18.20;61.30;;;;;;5110970;28;20610;-69
2024/01/05 02:33:21;;;;;;;1.80;1.70;;;18.20;61.30;;;;;;5080087;28;20205;-69
2024/01/05 02:35:47;;;;;;;1.90;1.63;;;18.20;61.30;;;;;;5102468;28;20279;-69
2024/01/05 02:38:13;;;;;;;1.90;1.80;;;18.20;61.30;;;;;;5083230;28;20628;-69
2024/01/05 02:40:39;;;;;;;2.03;1.50;;;18.20;61.40;;;;;;5103069;28;20188;-69
2024/01/05 02:43:04;;;;;;;1.95;1.63;;;18.20;61.30;;;;;;5091491;28;20568;-69
2024/01/05 02:45:31;;;;;;;1.65;1.42;;;18.20;61.40;;;;;;5092691;28;20177;-69
2024/01/05 02:47:57;;;;;;;1.80;1.42;;;18.20;61.20;;;;;;5093024;28;20562;-69
2024/01/05 02:50:23;;;;;;;1.90;1.40;;;18.20;61.30;;;;;;5108572;28;20276;-69
2024/01/05 02:52:48;;;;;;;2.10;1.80;;;18.20;61.30;;;;;;5094561;28;20246;-70
2024/01/05 02:55:14;;;;;;;2.30;1.40;;;18.20;61.30;;;;;;5090734;28;20199;-69
2024/01/05 02:57:41;;;;;;;1.63;1.50;;;18.20;61.20;;;;;;5102816;28;20235;-69
2024/01/05 03:00:07;;;;;;;2.10;1.30;;;18.20;61.30;;;;;;5092350;28;20193;-70
2024/01/05 03:02:34;;;;;;;2.22;1.60;;;18.20;61.20;;;;;;5076285;28;20189;-70
2024/01/05 03:04:59;;;;;;;1.80;1.60;;;18.20;61.20;;;;;;5092562;28;20209;-69
2024/01/05 03:07:26;;;;;;;1.50;1.40;;;18.20;61.20;;;;;;5083571;28;20218;-69
2024/01/05 03:09:52;;;;;;;2.50;1.50;;;18.20;61.20;;;;;;5074655;28;20231;-69
2024/01/05 03:12:18;;;;;;;1.70;1.58;;;18.20;62.00;;;;;;5105537;28;20663;-70
2024/01/05 03:14:44;;;;;;;2.03;1.50;;;18.20;61.20;;;;;;5091465;28;20220;-69
2024/01/05 03:17:10;;;;;;;1.85;1.40;;;18.20;61.20;;;;;;5109522;28;20177;-69
2024/01/05 03:19:36;;;;;;;1.80;1.38;;;18.20;61.20;;;;;;5107622;28;20196;-70
2024/01/05 03:22:02;;;;;;;2.65;1.70;;;18.20;61.20;;;;;;5110012;28;20181;-69
2024/01/05 03:24:28;;;;;;;1.63;1.50;;;18.20;61.20;;;;;;5087917;28;20634;-69
2024/01/05 03:26:54;;;;;;;1.90;1.40;;;18.20;61.20;;;;;;5092067;28;20181;-70
2024/01/05 03:29:20;;;;;;;2.40;1.58;;;18.20;61.10;;;;;;5092255;28;20634;-69
2024/01/05 03:31:47;;;;;;;2.15;1.60;;;18.20;61.30;;;;;;5109041;28;20221;-69
2024/01/05 03:34:14;;;;;;;2.15;1.60;;;18.20;61.20;;;;;;5090444;28;20204;-70
2024/01/05 03:36:40;;;;;;;2.22;1.40;;;18.10;61.20;;;;;;5092156;28;20252;-70
2024/01/05 03:39:07;;;;;;;1.60;1.30;;;18.20;61.30;;;;;;5090996;28;20173;-70
2024/01/05 03:41:34;;;;;;;1.98;1.40;;;18.10;61.10;;;;;;5085816;28;20193;-68
2024/01/05 03:44:00;;;;;;;1.63;1.40;;;18.20;61.10;;;;;;5071920;28;20230;-70
2024/01/05 03:46:26;;;;;;;1.85;1.40;;;18.20;61.20;;;;;;5071080;28;20192;-70
2024/01/05 03:48:53;;;;;;;1.95;1.40;;;18.10;61.10;;;;;;5111093;28;20680;-69
2024/01/05 03:51:18;;;;;;;1.48;1.38;;;18.20;61.20;;;;;;5111252;27;20197;-68
2024/01/05 03:53:44;;;;;;;1.83;1.70;;;18.20;61.20;;;;;;5098025;28;20213;-69
2024/01/05 03:56:10;;;;;;;1.45;1.35;;;18.20;61.10;;;;;;5088243;28;20185;-69
2024/01/05 03:58:36;;;;;;;1.95;1.75;;;18.20;61.10;;;;;;5087072;28;20196;-70
2024/01/05 04:01:03;;;;;;;2.20;1.55;;;18.20;61.10;;;;;;5091570;28;20180;-69
2024/01/05 04:03:29;;;;;;;1.27;1.20;;;18.10;61.00;;;;;;5091499;28;20367;-70
2024/01/05 04:05:55;;;;;;;1.55;1.38;;;18.20;61.20;;;;;;5091625;28;20299;-69
2024/01/05 04:08:22;;;;;;;1.50;1.40;;;18.20;61.10;;;;;;5091574;28;20195;-69
2024/01/05 04:10:48;;;;;;;1.40;1.30;;;18.20;61.10;;;;;;5091342;28;20209;-69
2024/01/05 04:13:14;;;;;;;2.15;1.75;;;18.20;61.10;;;;;;5074413;28;20221;-69
2024/01/05 04:15:40;;;;;;;2.05;1.30;;;18.10;61.00;;;;;;5091296;28;20215;-69
2024/01/05 04:18:06;;;;;;;1.60;1.40;;;18.20;61.10;;;;;;5095207;28;20188;-69
2024/01/05 04:20:32;;;;;;;1.55;1.45;;;18.20;61.10;;;;;;5112408;28;20188;-69
2024/01/05 04:23:00;;;;;;;1.83;1.65;;;18.20;61.10;;;;;;5100341;28;20231;-70
2024/01/05 04:25:26;;;;;;;1.60;1.40;;;18.10;61.00;;;;;;5089731;28;20248;-69
2024/01/05 04:27:52;;;;;;;1.90;1.23;;;18.20;61.10;;;;;;5097292;28;20192;-70
2024/01/05 04:30:20;;;;;;;2.47;1.75;;;18.10;61.00;;;;;;5097144;28;20219;-69
2024/01/05 04:32:47;;;;;;;1.58;1.48;;;18.20;61.20;;;;;;5109978;28;20217;-70
2024/01/05 04:35:12;;;;;;;1.60;1.27;;;18.10;61.10;;;;;;5091392;28;20187;-70
2024/01/05 04:37:38;;;;;;;1.48;1.38;;;18.10;61.00;;;;;;5106771;28;20188;-70
2024/01/05 04:40:06;;;;;;;2.38;1.35;;;18.20;61.10;;;;;;5086295;28;20187;-69
2024/01/05 04:42:33;;;;;;;2.15;1.40;;;18.10;61.00;;;;;;5078181;28;20180;-69
2024/01/05 04:44:58;;;;;;;1.50;1.27;;;18.20;61.10;;;;;;5099271;28;20204;-70
2024/01/05 04:47:25;;;;;;;2.80;1.35;;;18.20;61.10;;;;;;5099093;28;20192;-69
2024/01/05 04:49:50;;;;;;;1.90;1.23;;;18.20;61.10;;;;;;5115660;28;20208;-69
2024/01/05 04:52:16;;;;;;;1.80;1.42;;;18.10;60.90;;;;;;5095832;28;20180;-70
2024/01/05 04:54:42;;;;;;;1.30;1.20;;;18.20;61.00;;;;;;5101345;28;20209;-70
2024/01/05 04:57:08;;;;;;;2.70;1.48;;;18.20;61.00;;;;;;5106516;28;20177;-69
2024/01/05 04:59:34;;;;;;;1.70;1.40;;;18.20;61.80;;;;;;5081942;28;20186;-69
2024/01/05 05:02:00;;;;;;;1.58;1.40;;;18.20;61.00;;;;;;5081306;28;20191;-69
2024/01/05 05:04:25;;;;;;;1.33;1.23;;;18.20;61.00;;;;;;5090857;28;20215;-69
2024/01/05 05:06:51;;;;;;;1.73;1.30;;;18.10;60.90;;;;;;5082837;28;20184;-69
2024/01/05 05:09:17;;;;;;;1.65;1.10;;;18.20;61.80;;;;;;5102425;28;20643;-69
2024/01/05 05:11:43;;;;;;;1.77;1.38;;;18.10;61.00;;;;;;5125888;28;20227;-69
2024/01/05 05:14:08;;;;;;;1.48;1.38;;;18.10;61.00;;;;;;5077892;28;20212;-69
2024/01/05 05:16:35;;;;;;;1.63;1.33;;;18.10;61.00;;;;;;5112801;28;20222;-69
2024/01/05 05:19:01;;;;;;;1.80;1.45;;;18.10;60.90;;;;;;5090030;28;20181;-69
2024/01/05 05:21:28;;;;;;;1.40;1.30;;;18.10;61.00;;;;;;5073688;28;20193;-69
2024/01/05 05:23:54;;;;;;;2.00;1.27;;;18.20;61.00;;;;;;5091945;28;20224;-69
2024/01/05 05:26:20;;;;;;;1.25;1.15;;;18.10;61.00;;;;;;5098879;28;20245;-69
2024/01/05 05:28:46;;;;;;;1.75;1.40;;;18.10;61.00;;;;;;5091114;28;20193;-69
2024/01/05 05:31:12;;;;;;;1.48;1.38;;;18.10;61.00;;;;;;5080550;28;20201;-69
2024/01/05 05:33:38;;;;;;;1.92;1.45;;;18.20;61.00;;;;;;5094226;28;20251;-70
2024/01/05 05:36:04;;;;;;;1.45;1.35;;;18.10;61.00;;;;;;5077465;28;20664;-70
2024/01/05 05:38:31;;;;;;;1.35;1.10;;;18.10;61.00;;;;;;5085187;28;20181;-70
2024/01/05 05:40:57;;;;;;;1.92;1.42;;;18.20;61.00;;;;;;5094384;28;20193;-70
2024/01/05 05:43:23;;;;;;;1.70;1.60;;;18.10;60.90;;;;;;5093879;28;20209;-69
2024/01/05 05:45:49;;;;;;;1.38;1.27;;;18.10;60.90;;;;;;5076950;28;20212;-69
2024/01/05 05:48:15;;;;;;;1.30;1.17;;;18.20;61.00;;;;;;5094210;28;20220;-71
2024/01/05 05:50:41;;;;;;;1.88;1.40;;;18.20;61.00;;;;;;5076862;28;20247;-69
2024/01/05 05:53:08;;;;;;;1.65;1.48;;;18.10;60.80;;;;;;5103681;28;20233;-69
2024/01/05 05:55:34;;;;;;;2.40;1.70;;;18.10;60.80;;;;;;5082093;28;20177;-69
2024/01/05 05:57:59;;;;;;;1.42;1.30;;;18.20;61.00;;;;;;5078871;28;20195;-69
2024/01/05 06:00:26;;;;;;;1.98;1.48;;;18.20;61.00;;;;;;5098723;28;20184;-70
2024/01/05 06:02:51;;;;;;;1.20;1.10;;;18.10;60.90;;;;;;5093293;28;20205;-70
2024/01/05 06:05:17;;;;;;;1.40;1.30;;;18.10;60.90;;;;;;5098287;28;20191;-69
2024/01/05 06:07:43;;;;;;;1.65;1.20;;;18.20;60.90;;;;;;5078315;28;20199;-69
2024/01/05 06:10:09;;;;;;;1.42;1.30;;;18.10;60.80;;;;;;5082870;28;20218;-70
2024/01/05 06:12:35;;;;;;;1.98;1.50;;;18.10;60.90;;;;;;5099300;28;20562;-70
2024/01/05 06:15:00;;;;;;;1.48;1.38;;;18.10;60.80;;;;;;5118932;27;20185;-70
2024/01/05 06:17:26;;;;;;;1.30;1.20;;;18.10;60.90;;;;;;5100506;28;20185;-69
2024/01/05 06:19:52;;;;;;;1.55;1.30;;;18.10;60.90;;;;;;5085524;28;20192;-69
2024/01/05 06:22:17;;;;;;;1.30;1.20;;;18.10;60.90;;;;;;5093939;28;20185;-70
2024/01/05 06:24:46;;;;;;;1.50;1.10;;;18.10;60.90;;;;;;5089815;28;20206;-69
2024/01/05 06:27:12;;;;;;;1.70;1.35;;;18.10;60.90;;;;;;5092693;28;20281;-70
2024/01/05 06:29:38;;;;;;;1.33;1.23;;;18.10;60.90;;;;;;5122066;27;20180;-69
2024/01/05 06:32:05;;;;;;;1.83;1.50;;;18.10;60.90;;;;;;5109866;28;20215;-69
2024/01/05 06:34:30;;;;;;;2.03;1.48;;;18.10;60.90;;;;;;5082956;28;20216;-69
2024/01/05 06:36:56;;;;;;;1.55;1.45;;;18.10;61.60;;;;;;5093737;28;20185;-69
2024/01/05 06:39:23;;;;;;;2.47;1.40;;;18.20;61.00;;;;;;5121898;27;20245;-69
2024/01/05 06:41:49;;;;;;;1.50;1.40;;;18.10;60.80;;;;;;5093991;28;20563;-70
2024/01/05 06:44:14;;;;;;;1.67;1.58;;;18.10;60.80;;;;;;5096364;28;20714;-69
2024/01/05 06:46:40;;;;;;;1.30;1.10;;;18.10;60.90;;;;;;5088754;28;20322;-69
2024/01/05 06:49:06;;;;;;;1.55;1.30;;;18.10;60.80;;;;;;5102699;28;20200;-69
2024/01/05 06:51:50;;;;;;;2.95;1.50;;;18.20;60.80;;;;;;5080437;28;20208;-69
2024/01/05 06:54:17;;;;;;;1.50;1.40;;;18.20;60.90;;;;;;5066469;28;20196;-69
2024/01/05 06:56:42;;;;;;;1.20;1.10;;;18.20;60.90;;;;;;5091740;28;20181;-70
2024/01/05 06:59:09;;;;;;;2.13;1.27;;;18.10;60.80;;;;;;5089317;28;20248;-69
2024/01/05 07:01:35;;;;;;;1.33;1.13;;;18.10;60.80;;;;;;5092677;28;20181;-69
2024/01/05 07:04:01;;;;;;;1.77;1.48;;;18.10;60.80;;;;;;5092588;28;20216;-69
2024/01/05 07:06:27;;;;;;;1.98;1.42;;;18.10;60.80;;;;;;5087062;28;20195;-70
2024/01/05 07:08:53;;;;;;;1.90;1.40;;;18.10;60.80;;;;;;5083872;28;20579;-70
2024/01/05 07:11:24;;;;;;;1.52;1.40;;;18.10;60.90;;;;;;5094925;28;20236;-69
2024/01/05 07:13:51;;;;;;;1.63;1.42;;;18.10;60.80;;;;;;5092807;28;20227;-70
2024/01/05 07:16:21;;;;;;;1.50;1.40;;;18.10;60.80;;;;;;5085660;28;20199;-69
2024/01/05 07:18:48;;;;;;;2.38;1.30;;;18.10;60.90;;;;;;5080555;28;20245;-69
2024/01/05 07:21:17;;;;;;;1.45;1.30;;;18.10;60.90;;;;;;5077277;28;20200;-69
2024/01/05 07:23:43;;;;;;;1.90;1.17;;;18.20;61.00;;;;;;5100732;28;20217;-70
2024/01/05 07:26:10;;;;;;;2.20;1.30;;;18.10;60.80;;;;;;5095056;28;20181;-69
2024/01/05 07:28:40;;;;;;;1.90;1.40;;;18.10;60.80;;;;;;5091163;28;20195;-69
2024/01/05 07:31:05;;;;;;;2.28;1.05;;;18.20;60.90;;;;;;5077603;28;20213;-70
2024/01/05 07:33:32;;;;;;;2.63;1.67;;;18.20;60.90;;;;;;5096256;28;20252;-69
2024/01/05 07:36:04;;;;;;;1.65;1.30;;;18.10;60.80;;;;;;5095710;28;20188;-70
2024/01/05 07:38:33;;;;;;;1.88;1.30;;;18.10;60.70;;;;;;5098242;28;20185;-69
2024/01/05 07:40:58;;;;;;;2.10;1.30;;;18.20;60.80;;;;;;5090974;28;20216;-69
2024/01/05 07:43:25;;;;;;;2.00;1.48;;;18.10;60.70;;;;;;5084925;28;20211;-69
2024/01/05 07:45:51;;;;;;;1.33;1.23;;;18.20;60.90;;;;;;5074060;28;20280;-69
2024/01/05 07:48:17;;;;;;;1.35;1.20;;;18.10;60.80;;;;;;5079575;28;20275;-69
2024/01/05 07:50:43;;;;;;;1.50;1.40;;;18.10;60.80;;;;;;5080530;28;20243;-69
2024/01/05 07:53:08;;;;;;;3.20;1.40;;;18.10;61.50;;;;;;5097964;28;20280;-69
2024/01/05 07:55:35;;;;;;;1.50;1.27;;;18.10;60.80;;;;;;5102037;28;20240;-69
2024/01/05 07:58:00;;;;;;;1.63;1.10;;;18.10;60.80;;;;;;5076434;28;20186;-69
2024/01/05 08:00:26;;;;;;;1.55;1.10;;;18.10;60.80;;;;;;5079342;28;20246;-69
2024/01/05 08:02:52;;;;;;;1.40;1.15;;;18.20;60.90;;;;;;5078782;28;20249;-69
2024/01/05 08:05:18;;;;;;;2.33;1.20;;;18.10;60.80;;;;;;5079093;28;20200;-69
2024/01/05 08:07:44;;;;;;;1.20;1.00;;;18.20;60.90;;;;;;5079026;28;20197;-69
2024/01/05 08:10:11;;;;;;;2.17;1.30;;;18.20;60.90;;;;;;5101850;28;20216;-69
2024/01/05 08:12:36;;;;;;;1.90;1.50;;;18.10;60.70;;;;;;5091346;28;20188;-69
2024/01/05 08:15:03;;;;;;;2.15;1.40;;;18.10;60.80;;;;;;5098978;28;20181;-70
2024/01/05 08:17:29;;;;;;;1.05;0.95;;;18.10;60.80;;;;;;5094501;28;20172;-69
2024/01/05 08:19:55;;;;;;;1.63;1.30;;;18.10;60.70;;;;;;5095785;28;20199;-68
2024/01/05 08:22:20;;;;;;;1.83;1.10;;;18.10;60.70;;;;;;5085473;28;20185;-69
2024/01/05 08:24:46;;;;;;;1.65;1.48;;;18.10;60.70;;;;;;5073533;28;20200;-69
2024/01/05 08:27:12;;;;;;;1.77;1.52;;;18.10;60.70;;;;;;5071628;28;20216;-69
2024/01/05 08:29:38;;;;;;;1.67;1.33;;;18.10;60.70;;;;;;5091549;28;20184;-69
2024/01/05 08:32:04;;;;;;;2.25;1.60;;;18.10;60.70;;;;;;5096925;28;20559;-68
2024/01/05 08:34:30;;;;;;;2.97;1.83;;;18.10;60.70;;;;;;5073261;28;20205;-69
2024/01/05 08:36:55;;;;;;;3.00;1.90;;;18.20;60.90;;;;;;5095188;28;20229;-70
2024/01/05 08:39:21;;;;;;;2.20;1.80;;;18.10;60.70;;;;;;5100298;28;20210;-69
2024/01/05 08:41:47;;;;;;;2.25;1.50;;;18.20;61.60;;;;;;5096788;28;20191;-70
2024/01/05 08:44:14;;;;;;;1.92;1.52;;;18.10;60.70;;;;;;5102156;28;20201;-70
2024/01/05 08:46:41;;;;;;;2.03;1.40;;;18.20;60.80;;;;;;5073376;28;20188;-69
2024/01/05 08:49:07;;;;;;;2.78;1.45;;;18.10;60.70;;;;;;5073174;28;20188;-68
2024/01/05 08:51:32;;;;;;;2.40;1.55;;;18.10;60.70;;;;;;5094136;28;20272;-69
2024/01/05 08:54:01;;;;;;;1.95;1.40;;;18.10;60.70;;;;;;5094993;28;20234;-69
2024/01/05 08:56:27;;;;;;;1.60;1.48;;;18.20;60.80;;;;;;5102330;28;20173;-70
2024/01/05 08:58:53;;;;;;;1.88;1.42;;;18.20;60.80;;;;;;5077836;28;20181;-69
2024/01/05 09:01:19;;;;;;;1.73;1.20;;;18.20;60.80;;;;;;5095515;28;20188;-69
2024/01/05 09:03:45;;;;;;;3.33;1.63;;;18.20;60.80;;;;;;5109148;28;20221;-70
2024/01/05 09:06:11;;;;;;;1.77;1.50;;;18.10;60.60;;;;;;5095851;28;20200;-69
2024/01/05 09:08:37;;;;;;;1.90;1.45;;;18.20;61.60;;;;;;5080442;28;20185;-69
2024/01/05 09:11:04;;;;;;;2.67;1.52;;;18.10;60.70;;;;;;5081657;28;20205;-69
2024/01/05 09:13:30;;;;;;;3.00;1.55;;;18.20;60.80;;;;;;5079269;28;20240;-69
2024/01/05 09:15:56;;;;;;;1.92;1.50;;;18.20;60.80;;;;;;5093201;28;20281;-70
2024/01/05 09:18:22;;;;;;;1.70;1.40;;;18.20;60.70;;;;;;5076632;28;20192;-69
2024/01/05 09:20:47;;;;;;;1.67;1.33;;;18.20;60.70;;;;;;5084850;28;20188;-69
2024/01/05 09:23:13;;;;;;;1.60;1.45;;;18.20;60.70;;;;;;5092522;28;20313;-69
2024/01/05 09:25:39;;;;;;;2.78;1.40;;;18.20;60.70;;;;;;5076638;28;20195;-69
2024/01/05 09:28:06;;;;;;;3.20;1.77;;;18.20;60.70;;;;;;5090781;28;20189;-69
2024/01/05 09:30:32;;;;;;;1.80;1.20;;;18.20;60.70;;;;;;5097543;28;20196;-69
2024/01/05 09:32:58;;;;;;;1.50;1.35;;;18.20;60.70;;;;;;5094675;28;20201;-69
2024/01/05 09:35:25;;;;;;;1.90;1.40;;;18.20;60.70;;;;;;5104501;28;20211;-69
2024/01/05 09:37:52;;;;;;;1.48;1.25;;;18.20;60.70;;;;;;5097769;28;20263;-69
2024/01/05 09:40:17;;;;;;;2.15;1.52;;;18.20;60.70;;;;;;5099983;28;20199;-70
2024/01/05 09:42:50;;;;;;;1.50;1.40;;;18.20;60.70;;;;;;5100507;28;20195;-69
2024/01/05 09:45:19;;;;;;;1.30;1.20;;;18.20;60.70;;;;;;5079207;28;20188;-69
2024/01/05 09:47:47;;;;;;;1.67;1.27;;;18.20;60.70;;;;;;5079737;28;20186;-69
2024/01/05 09:50:16;;;;;;;1.73;1.08;;;18.20;60.70;;;;;;5090380;28;20769;-69
2024/01/05 09:52:43;;;;;;;2.60;1.55;;;18.20;60.70;;;;;;5077214;28;20227;-69
2024/01/05 09:55:10;;;;;;;2.05;1.60;;;18.20;60.80;;;;;;5088226;28;20181;-69
2024/01/05 09:57:39;;;;;;;2.20;1.60;;;18.20;60.70;;;;;;5083367;28;20177;-69
2024/01/05 10:00:07;;;;;;;1.60;1.40;;;18.20;60.70;;;;;;5088717;28;20193;-69
2024/01/05 10:02:53;;;;;;;2.38;1.52;;;18.20;60.70;;;;;;5105845;28;20188;-69
2024/01/05 10:05:19;;;;;;;1.95;1.50;;;18.20;60.70;;;;;;5097831;28;20184;-69
2024/01/05 10:07:44;;;;;;;2.67;1.60;;;18.20;60.70;;;;;;5097287;28;20193;-68
2024/01/05 10:10:12;;;;;;;2.30;1.65;;;18.20;60.70;;;;;;5109105;28;20254;-69
2024/01/05 10:12:40;;;;;;;2.83;2.40;;;18.20;60.70;;;;;;5082028;28;20191;-69
2024/01/05 10:15:06;;;;;;;4.00;2.78;;;18.20;60.70;;;;;;5092199;28;20181;-69
2024/01/05 10:17:35;;;;;;;3.45;3.15;;;18.20;60.70;;;;;;5112006;27;20185;-69
2024/01/05 10:20:16;;;;;;;2.88;2.45;;;18.20;60.70;;;;;;5091215;28;20557;-69
2024/01/05 10:22:48;;;;;;;2.88;2.30;;;18.20;60.80;;;;;;5105380;28;20185;-69
2024/01/05 10:25:22;;;;;;;3.22;2.65;;;18.20;60.80;;;;;;5090658;28;20192;-69
2024/01/05 10:27:53;;;;;;;2.88;2.58;;;18.20;60.80;;;;;;5099348;28;20635;-69
2024/01/05 10:30:28;;;;;;;2.70;2.50;;;18.20;60.80;;;;;;5095776;28;20239;-69
2024/01/05 10:33:07;;;;;;;3.33;3.03;;;18.20;60.70;;;;;;5093601;28;20208;-68
2024/01/05 10:35:35;;;;;;;4.15;2.75;;;18.20;60.80;;;;;;5100586;28;20191;-69
2024/01/05 10:38:13;;;;;;;2.90;2.55;;;18.20;60.80;;;;;;5081781;28;20215;-68
2024/01/05 10:40:40;;;;;;;2.47;2.28;;;18.20;60.80;;;;;;5075371;28;20213;-68
2024/01/05 10:43:15;;;;;;;2.83;2.35;;;18.20;60.80;;;;;;5094955;28;20205;-68
2024/01/05 10:45:42;;;;;;;4.25;2.60;;;18.20;60.80;;;;;;5087287;28;20191;-69
2024/01/05 10:48:16;;;;;;;2.85;2.58;;;18.20;60.80;;;;;;5113330;27;20190;-69
2024/01/05 10:50:44;;;;;;;2.72;2.30;;;18.30;60.90;;;;;;5090079;28;20254;-69
2024/01/05 10:53:10;;;;;;;3.38;2.65;;;18.20;60.80;;;;;;5098751;28;20564;-69
2024/01/05 10:55:38;;;;;;;2.30;2.10;;;18.30;61.00;;;;;;5097906;28;20191;-68
2024/01/05 10:58:08;;;;;;;2.70;2.40;;;18.20;60.90;;;;;;5077965;28;20726;-69
2024/01/05 11:00:36;;;;;;;2.60;2.40;;;18.30;61.00;;;;;;5098300;28;20616;-69
2024/01/05 11:03:13;;;;;;;3.42;2.28;;;18.20;60.80;;;;;;5102797;27;20209;-69
2024/01/05 11:05:45;;;;;;;3.45;2.25;;;18.20;60.80;;;;;;5102877;28;20184;-69
2024/01/05 11:08:54;;;;;;;2.88;2.50;;;18.20;60.80;;;;;;5102711;28;20219;-68
2024/01/05 11:11:49;;;;;;;2.72;2.40;;;18.30;60.90;;;;;;5088632;28;20334;-69
2024/01/05 11:15:03;;;;;;;3.22;2.00;;;18.30;60.90;;;;;;5090909;28;20223;-68
2024/01/05 11:18:19;;;;;;;2.40;2.08;;;18.20;60.80;;;;;;5078901;28;20204;-69
2024/01/05 11:21:11;;;;;;;2.53;2.08;;;18.20;60.90;;;;;;5071826;28;20212;-69
2024/01/05 11:23:40;;;;;;;3.20;1.95;;;18.30;61.00;;;;;;5110661;28;20215;-69
2024/01/05 11:26:06;;;;;;;2.70;2.30;;;18.30;61.70;;;;;;5088531;28;20301;-69
2024/01/05 11:28:33;;;;;;;2.78;1.90;;;18.20;60.90;;;;;;5093565;28;20553;-69
2024/01/05 11:30:59;;;;;;;3.85;2.13;;;18.20;60.90;;;;;;5075944;28;20212;-69
2024/01/05 11:33:49;;;;;;;3.72;2.10;;;18.20;60.90;;;;;;5088212;28;20261;-69
2024/01/05 11:36:49;;;;;;;2.95;2.28;;;18.30;60.90;;;;;;5100624;28;20190;-69
2024/01/05 11:39:48;;;;;;;2.63;2.28;;;18.30;60.90;;;;;;5086958;28;20283;-69
2024/01/05 11:42:29;;;;;;;3.53;2.00;;;18.30;61.00;;;;;;5086565;28;20185;-68
2024/01/05 11:44:56;;;;;;;2.25;2.05;;;18.20;60.80;;;;;;5073420;28;20181;-68
2024/01/05 11:47:41;;;;;;;2.22;2.00;;;18.30;60.90;;;;;;5086063;28;20256;-69
2024/01/05 11:50:28;;;;;;;2.50;1.95;;;18.30;60.90;;;;;;5085357;28;20220;-69
2024/01/05 11:53:14;;;;;;;2.20;2.00;;;18.30;61.20;;;;;;5074053;28;20205;-69
2024/01/05 11:55:56;;;;;;;2.67;1.95;;;18.30;61.10;;;;;;5105524;28;20184;-68
2024/01/05 11:58:35;;;;;;;2.40;2.20;;;18.30;61.10;;;;;;5075963;28;20189;-69
2024/01/05 12:01:11;;;;;;;3.92;2.38;;;18.30;61.10;;;;;;5094132;28;20180;-69
2024/01/05 12:03:40;;;;;;;3.28;2.80;;;18.30;61.10;;;;;;5088165;28;20291;-69
2024/01/05 12:06:11;;;;;;;2.40;2.20;;;18.20;61.00;;;;;;5092991;28;20325;-68
2024/01/05 12:08:39;;;;;;;3.53;2.55;;;18.30;61.10;;;;;;5099132;28;20192;-69
2024/01/05 12:11:08;;;;;;;2.88;2.50;;;18.30;61.20;;;;;;5103884;28;20210;-69
2024/01/05 12:13:35;;;;;;;3.08;2.75;;;18.30;61.20;;;;;;5091066;28;20205;-68
2024/01/05 12:16:04;;;;;;;2.95;2.60;;;18.30;61.10;;;;;;5065700;28;20186;-69
2024/01/05 12:18:33;;;;;;;3.85;2.85;;;18.30;61.10;;;;;;5091162;28;20181;-68
2024/01/05 12:21:03;;;;;;;2.75;2.47;;;18.30;61.10;;;;;;5109505;28;20201;-69
2024/01/05 12:23:30;;;;;;;3.10;2.80;;;18.30;61.10;;;;;;5100138;28;20209;-69
2024/01/05 12:26:05;;;;;;;3.92;2.65;;;18.30;61.10;;;;;;5088218;28;20186;-69
2024/01/05 12:28:39;;;;;;;3.13;2.63;;;18.30;61.10;;;;;;5087794;28;20610;-68
2024/01/05 12:31:07;;;;;;;3.72;2.67;;;18.30;61.10;;;;;;5059581;28;20213;-68
2024/01/05 12:33:37;;;;;;;3.88;2.67;;;18.30;61.10;;;;;;5069009;28;20202;-69
2024/01/05 12:36:14;;;;;;;3.85;3.20;;;18.30;61.20;;;;;;5083789;28;20185;-69
2024/01/05 12:38:40;;;;;;;3.13;2.60;;;18.30;61.10;;;;;;5090644;28;20189;-68
2024/01/05 12:41:14;;;;;;;4.13;2.70;;;18.30;61.10;;;;;;5078119;28;20196;-69
2024/01/05 12:43:49;;;;;;;3.10;2.80;;;18.30;61.10;;;;;;5103906;28;20224;-69
2024/01/05 12:46:17;;;;;;;4.45;2.58;;;18.30;61.10;;;;;;5109867;28;20192;-69
2024/01/05 12:48:43;;;;;;;3.60;2.60;;;18.30;61.10;;;;;;5087174;28;20195;-68
2024/01/05 12:51:11;;;;;;;3.72;2.80;;;18.30;61.10;;;;;;5077491;28;20209;-68
2024/01/05 12:53:37;;;;;;;4.28;2.25;;;18.30;61.10;;;;;;5087967;28;20291;-69